createdAt,value
2018-02-23T00:00:31.400Z,11.60
2018-02-23T00:01:38.220Z,10.80
2018-02-23T00:02:44.992Z,11.80
2018-02-23T00:03:51.796Z,12.20
2018-02-23T00:04:58.543Z,13.70
2018-02-23T00:06:05.393Z,13.50
2018-02-23T00:07:12.148Z,11.10
2018-02-23T00:08:18.881Z,12.40
2018-02-23T00:09:25.648Z,15.70
2018-02-23T00:10:32.640Z,12.30
2018-02-23T00:11:39.384Z,12.40
2018-02-23T00:12:46.133Z,12.20
2018-02-23T00:13:53.088Z,13.40
2018-02-23T00:14:59.953Z,12.70
2018-02-23T00:16:06.816Z,13.60
2018-02-23T00:17:13.587Z,15.20
2018-02-23T00:18:20.317Z,12.00
2018-02-23T00:19:27.080Z,13.70
2018-02-23T00:20:33.821Z,12.80
2018-02-23T00:21:40.620Z,11.80
2018-02-23T00:22:47.372Z,12.70
2018-02-23T00:23:54.399Z,13.90
2018-02-23T00:25:01.131Z,13.00
2018-02-23T00:26:07.907Z,12.40
2018-02-23T00:27:14.656Z,14.00
2018-02-23T00:28:21.390Z,13.20
2018-02-23T00:29:28.192Z,12.80
2018-02-23T00:30:35.000Z,14.60
2018-02-23T00:31:41.784Z,13.80
2018-02-23T00:32:48.668Z,11.90
2018-02-23T00:33:55.384Z,14.90
2018-02-23T00:35:02.168Z,11.70
2018-02-23T00:36:08.921Z,14.20
2018-02-23T00:37:15.818Z,12.90
2018-02-23T00:38:22.576Z,12.20
2018-02-23T00:39:29.415Z,17.00
2018-02-23T00:40:36.261Z,12.50
2018-02-23T00:41:43.005Z,15.10
2018-02-23T00:42:50.125Z,12.80
2018-02-23T00:43:56.876Z,12.70
2018-02-23T00:45:03.658Z,15.20
2018-02-23T00:46:10.341Z,13.40
2018-02-23T00:47:17.220Z,12.20
2018-02-23T00:48:23.972Z,15.00
2018-02-23T00:49:30.738Z,12.40
2018-02-23T00:50:37.500Z,13.60
2018-02-23T00:51:44.325Z,14.70
2018-02-23T00:52:51.088Z,12.30
2018-02-23T00:53:57.920Z,12.60
2018-02-23T00:55:04.664Z,14.40
2018-02-23T00:56:11.455Z,13.20
2018-02-23T00:57:18.176Z,14.00
2018-02-23T00:58:24.913Z,13.10
2018-02-23T00:59:31.668Z,15.40
2018-02-23T01:00:38.384Z,12.90
2018-02-23T01:01:45.248Z,12.60
2018-02-23T01:02:52.003Z,16.60
2018-02-23T01:03:59.074Z,11.90
2018-02-23T01:05:05.860Z,14.40
2018-02-23T01:06:12.607Z,13.70
2018-02-23T01:07:19.675Z,14.90
2018-02-23T01:08:26.437Z,14.50
2018-02-23T01:09:33.169Z,14.20
2018-02-23T01:10:39.988Z,13.10
2018-02-23T01:11:46.695Z,15.70
2018-02-23T01:12:53.403Z,14.20
2018-02-23T01:14:00.181Z,13.60
2018-02-23T01:15:06.904Z,14.10
2018-02-23T01:16:13.589Z,12.50
2018-02-23T01:17:20.407Z,16.70
2018-02-23T01:18:27.139Z,12.20
2018-02-23T01:19:33.855Z,11.30
2018-02-23T01:20:40.571Z,10.90
2018-02-23T01:21:47.259Z,11.30
2018-02-23T01:22:53.967Z,15.30
2018-02-23T01:24:00.652Z,13.80
2018-02-23T01:25:07.376Z,12.70
2018-02-23T01:26:14.472Z,14.00
2018-02-23T01:27:21.164Z,14.10
2018-02-23T01:28:27.889Z,13.50
2018-02-23T01:29:34.721Z,11.60
2018-02-23T01:30:41.427Z,13.30
2018-02-23T01:31:48.182Z,11.80
2018-02-23T01:32:54.905Z,10.90
2018-02-23T01:34:01.662Z,12.60
2018-02-23T01:35:08.480Z,14.10
2018-02-23T01:36:15.221Z,15.90
2018-02-23T01:37:21.952Z,16.60
2018-02-23T01:38:28.692Z,16.80
2018-02-23T01:39:35.577Z,12.30
2018-02-23T01:40:42.412Z,16.60
2018-02-23T01:41:49.128Z,15.50
2018-02-23T01:42:55.838Z,13.40
2018-02-23T01:44:02.544Z,15.80
2018-02-23T01:45:09.364Z,13.60
2018-02-23T01:46:16.171Z,13.60
2018-02-23T01:47:22.881Z,15.30
2018-02-23T01:48:29.603Z,14.10
2018-02-23T01:49:36.291Z,16.30
2018-02-23T01:50:43.189Z,17.00
2018-02-23T01:51:50.031Z,14.80
2018-02-23T01:52:56.912Z,16.60
2018-02-23T01:54:03.592Z,13.20
2018-02-23T01:55:10.401Z,14.60
2018-02-23T01:56:17.119Z,12.70
2018-02-23T01:57:23.832Z,13.00
2018-02-23T01:58:30.621Z,13.20
2018-02-23T01:59:37.331Z,12.50
2018-02-23T02:00:44.040Z,14.70
2018-02-23T02:01:50.786Z,15.70
2018-02-23T02:02:57.732Z,13.20
2018-02-23T02:04:04.451Z,13.20
2018-02-23T02:05:11.433Z,11.40
2018-02-23T02:06:18.276Z,13.40
2018-02-23T02:07:24.974Z,11.90
2018-02-23T02:08:31.655Z,12.20
2018-02-23T02:09:38.376Z,13.50
2018-02-23T02:10:45.066Z,15.60
2018-02-23T02:11:51.848Z,10.60
2018-02-23T02:12:58.544Z,14.60
2018-02-23T02:14:05.303Z,13.70
2018-02-23T02:15:12.113Z,13.50
2018-02-23T02:16:18.885Z,11.90
2018-02-23T02:17:25.609Z,12.80
2018-02-23T02:18:32.296Z,12.70
2018-02-23T02:19:39.088Z,12.40
2018-02-23T02:20:45.789Z,12.80
2018-02-23T02:21:52.537Z,13.40
2018-02-23T02:22:59.396Z,13.70
2018-02-23T02:24:06.208Z,12.00
2018-02-23T02:25:12.936Z,13.20
2018-02-23T02:26:19.672Z,12.70
2018-02-23T02:27:26.451Z,12.30
2018-02-23T02:28:33.289Z,10.80
2018-02-23T02:29:40.018Z,14.30
2018-02-23T02:30:46.966Z,11.90
2018-02-23T02:31:53.808Z,14.20
2018-02-23T02:33:00.536Z,11.20
2018-02-23T02:34:07.380Z,12.00
2018-02-23T02:35:14.290Z,12.50
2018-02-23T02:36:21.128Z,13.20
2018-02-23T02:37:27.885Z,11.80
2018-02-23T02:38:34.645Z,11.40
2018-02-23T02:39:41.729Z,11.50
2018-02-23T02:40:48.452Z,11.20
2018-02-23T02:41:55.255Z,13.00
2018-02-23T02:43:02.122Z,12.70
2018-02-23T02:44:08.823Z,13.20
2018-02-23T02:45:15.544Z,11.30
2018-02-23T02:46:22.376Z,13.10
2018-02-23T02:47:29.084Z,10.70
2018-02-23T02:48:35.864Z,13.70
2018-02-23T02:49:42.588Z,11.30
2018-02-23T02:50:49.338Z,13.30
2018-02-23T02:51:56.070Z,14.20
2018-02-23T02:53:02.905Z,12.90
2018-02-23T02:54:09.691Z,11.90
2018-02-23T02:55:16.406Z,10.90
2018-02-23T02:56:23.171Z,12.30
2018-02-23T02:57:30.000Z,12.30
2018-02-23T02:58:36.788Z,11.20
2018-02-23T02:59:43.538Z,15.00
2018-02-23T03:00:50.264Z,14.70
2018-02-23T03:01:56.997Z,13.30
2018-02-23T03:03:03.792Z,13.50
2018-02-23T03:04:10.531Z,10.80
2018-02-23T03:05:17.289Z,9.00
2018-02-23T03:06:24.008Z,12.90
2018-02-23T03:07:30.736Z,14.50
2018-02-23T03:08:37.596Z,14.20
2018-02-23T03:09:44.368Z,11.30
2018-02-23T03:10:51.133Z,13.80
2018-02-23T03:11:57.857Z,14.30
2018-02-23T03:13:04.743Z,13.40
2018-02-23T03:14:11.539Z,12.20
2018-02-23T03:15:18.275Z,15.00
2018-02-23T03:16:25.324Z,13.30
2018-02-23T03:17:32.033Z,12.80
2018-02-23T03:18:38.729Z,13.50
2018-02-23T03:19:45.444Z,11.50
2018-02-23T03:20:52.143Z,12.40
2018-02-23T03:21:58.996Z,11.60
2018-02-23T03:23:05.802Z,12.50
2018-02-23T03:24:12.495Z,13.20
2018-02-23T03:25:19.247Z,12.40
2018-02-23T03:26:26.144Z,13.50
2018-02-23T03:27:32.844Z,14.40
2018-02-23T03:28:39.561Z,11.90
2018-02-23T03:29:46.252Z,11.90
2018-02-23T03:30:53.009Z,10.50
2018-02-23T03:31:59.712Z,12.20
2018-02-23T03:33:06.424Z,14.40
2018-02-23T03:34:13.120Z,11.00
2018-02-23T03:35:19.809Z,10.00
2018-02-23T03:36:26.647Z,12.50
2018-02-23T03:37:33.348Z,11.90
2018-02-23T03:38:40.063Z,12.60
2018-02-23T03:39:46.795Z,13.20
2018-02-23T03:40:53.537Z,10.20
2018-02-23T03:42:00.265Z,13.10
2018-02-23T03:43:06.956Z,10.90
2018-02-23T03:44:13.763Z,13.60
2018-02-23T03:45:20.440Z,11.20
2018-02-23T03:46:27.283Z,11.60
2018-02-23T03:47:34.008Z,14.00
2018-02-23T03:48:40.729Z,12.40
2018-02-23T03:49:47.588Z,11.20
2018-02-23T03:50:54.308Z,11.80
2018-02-23T03:52:01.139Z,10.50
2018-02-23T03:53:07.840Z,12.60
2018-02-23T03:54:14.701Z,11.90
2018-02-23T03:55:21.502Z,13.30
2018-02-23T03:56:28.236Z,10.10
2018-02-23T03:57:34.964Z,12.40
2018-02-23T03:58:41.667Z,15.00
2018-02-23T03:59:48.599Z,13.00
2018-02-23T04:00:55.358Z,12.10
2018-02-23T04:02:02.113Z,10.40
2018-02-23T04:03:08.844Z,13.40
2018-02-23T04:04:15.638Z,11.90
2018-02-23T04:05:22.338Z,11.50
2018-02-23T04:06:29.058Z,12.30
2018-02-23T04:07:35.827Z,11.10
2018-02-23T04:08:42.532Z,10.80
2018-02-23T04:09:49.256Z,11.00
2018-02-23T04:10:56.087Z,10.70
2018-02-23T04:12:02.808Z,11.50
2018-02-23T04:13:09.589Z,13.20
2018-02-23T04:14:16.331Z,12.30
2018-02-23T04:15:23.064Z,11.10
2018-02-23T04:16:29.858Z,12.80
2018-02-23T04:17:36.559Z,11.60
2018-02-23T04:18:43.276Z,12.00
2018-02-23T04:19:50.004Z,9.60
2018-02-23T04:20:56.728Z,9.40
2018-02-23T04:22:03.431Z,9.70
2018-02-23T04:23:10.130Z,11.00
2018-02-23T04:24:16.979Z,12.50
2018-02-23T04:25:23.685Z,12.20
2018-02-23T04:26:30.411Z,10.40
2018-02-23T04:27:37.157Z,10.30
2018-02-23T04:28:43.878Z,11.50
2018-02-23T04:29:50.612Z,9.60
2018-02-23T04:30:57.383Z,12.90
2018-02-23T04:32:04.060Z,12.70
2018-02-23T04:33:10.800Z,11.20
2018-02-23T04:34:17.528Z,12.40
2018-02-23T04:35:24.244Z,10.80
2018-02-23T04:36:30.956Z,11.50
2018-02-23T04:37:37.657Z,11.20
2018-02-23T04:38:44.499Z,11.60
2018-02-23T04:39:51.203Z,13.10
2018-02-23T04:40:57.985Z,10.20
2018-02-23T04:42:04.708Z,10.80
2018-02-23T04:43:11.433Z,11.00
2018-02-23T04:44:18.299Z,11.50
2018-02-23T04:45:25.030Z,8.40
2018-02-23T04:46:31.775Z,10.10
2018-02-23T04:47:38.464Z,13.50
2018-02-23T04:48:45.162Z,11.20
2018-02-23T04:49:52.044Z,10.90
2018-02-23T04:50:58.760Z,11.20
2018-02-23T04:52:05.489Z,8.20
2018-02-23T04:53:12.192Z,10.20
2018-02-23T04:54:18.937Z,11.00
2018-02-23T04:55:25.670Z,12.10
2018-02-23T04:56:32.515Z,11.70
2018-02-23T04:57:39.228Z,11.30
2018-02-23T04:58:45.962Z,9.60
2018-02-23T04:59:52.708Z,11.50
2018-02-23T05:00:59.400Z,10.30
2018-02-23T05:02:06.193Z,11.40
2018-02-23T05:03:12.908Z,15.00
2018-02-23T05:04:19.608Z,11.50
2018-02-23T05:05:26.368Z,9.00
2018-02-23T05:06:33.128Z,9.80
2018-02-23T05:07:39.823Z,11.30
2018-02-23T05:08:46.558Z,12.30
2018-02-23T05:09:53.309Z,13.60
2018-02-23T05:11:00.024Z,11.60
2018-02-23T05:12:06.792Z,10.50
2018-02-23T05:13:13.544Z,11.50
2018-02-23T05:14:20.280Z,10.10
2018-02-23T05:15:27.105Z,12.40
2018-02-23T05:16:33.864Z,12.80
2018-02-23T05:17:40.608Z,10.80
2018-02-23T05:18:47.398Z,11.10
2018-02-23T05:19:54.167Z,9.80
2018-02-23T05:21:00.885Z,10.90
2018-02-23T05:22:07.619Z,9.30
2018-02-23T05:23:14.382Z,12.20
2018-02-23T05:24:21.072Z,12.30
2018-02-23T05:25:27.804Z,14.90
2018-02-23T05:26:34.599Z,12.70
2018-02-23T05:27:41.300Z,13.50
2018-02-23T05:28:48.012Z,11.10
2018-02-23T05:29:54.829Z,11.90
2018-02-23T05:31:01.597Z,13.30
2018-02-23T05:32:08.504Z,13.00
2018-02-23T05:33:15.244Z,10.90
2018-02-23T05:34:21.960Z,13.10
2018-02-23T05:35:28.704Z,9.80
2018-02-23T05:36:35.484Z,10.70
2018-02-23T05:37:42.297Z,12.20
2018-02-23T05:38:49.061Z,12.50
2018-02-23T05:39:55.764Z,11.10
2018-02-23T05:41:02.571Z,11.80
2018-02-23T05:42:09.303Z,10.00
2018-02-23T05:43:16.052Z,12.80
2018-02-23T05:44:22.789Z,10.80
2018-02-23T05:45:29.492Z,10.40
2018-02-23T05:46:36.213Z,11.30
2018-02-23T05:47:43.068Z,10.90
2018-02-23T05:48:49.790Z,12.00
2018-02-23T05:49:56.533Z,11.30
2018-02-23T05:51:03.243Z,13.20
2018-02-23T05:52:09.985Z,10.70
2018-02-23T05:53:16.841Z,11.30
2018-02-23T05:54:23.560Z,12.30
2018-02-23T05:55:30.299Z,13.80
2018-02-23T05:56:37.054Z,12.50
2018-02-23T05:57:43.778Z,11.30
2018-02-23T05:58:50.561Z,13.30
2018-02-23T05:59:57.283Z,17.70
2018-02-23T06:01:03.979Z,14.00
2018-02-23T06:02:10.696Z,10.80
2018-02-23T06:03:17.460Z,12.90
2018-02-23T06:04:24.296Z,15.30
2018-02-23T06:05:30.976Z,10.10
2018-02-23T06:06:37.704Z,12.00
2018-02-23T06:07:44.428Z,16.90
2018-02-23T06:08:51.171Z,18.00
2018-02-23T06:09:58.057Z,14.40
2018-02-23T06:11:04.826Z,13.80
2018-02-23T06:12:11.525Z,26.10
2018-02-23T06:13:18.291Z,15.70
2018-02-23T06:14:25.182Z,15.10
2018-02-23T06:15:32.000Z,28.50
2018-02-23T06:16:38.748Z,19.60
2018-02-23T06:17:45.485Z,15.50
2018-02-23T06:18:52.341Z,11.10
2018-02-23T06:19:59.532Z,13.10
2018-02-23T06:21:06.281Z,11.30
2018-02-23T06:22:13.116Z,12.30
2018-02-23T06:23:19.964Z,12.50
2018-02-23T06:24:26.772Z,12.40
2018-02-23T06:25:33.513Z,17.20
2018-02-23T06:26:40.189Z,15.40
2018-02-23T06:27:46.915Z,15.60
2018-02-23T06:28:53.731Z,14.00
2018-02-23T06:30:00.420Z,14.50
2018-02-23T06:31:07.210Z,12.30
2018-02-23T06:32:13.896Z,14.50
2018-02-23T06:33:20.607Z,14.00
2018-02-23T06:34:27.332Z,12.00
2018-02-23T06:35:34.131Z,8.90
2018-02-23T06:36:40.961Z,12.90
2018-02-23T06:37:47.696Z,10.00
2018-02-23T06:38:54.452Z,10.80
2018-02-23T06:40:01.234Z,11.60
2018-02-23T06:41:08.408Z,11.70
2018-02-23T06:42:15.121Z,11.30
2018-02-23T06:43:21.875Z,14.60
2018-02-23T06:44:28.652Z,10.70
2018-02-23T06:45:35.379Z,10.30
2018-02-23T06:46:42.172Z,12.40
2018-02-23T06:47:49.132Z,9.10
2018-02-23T06:48:55.997Z,8.60
2018-02-23T06:50:02.744Z,9.50
2018-02-23T06:51:09.657Z,11.30
2018-02-23T06:52:16.462Z,10.70
2018-02-23T06:53:23.181Z,10.00
2018-02-23T06:54:29.922Z,11.90
2018-02-23T06:55:36.653Z,8.90
2018-02-23T06:56:43.377Z,10.70
2018-02-23T06:57:50.113Z,9.10
2018-02-23T06:58:57.125Z,9.70
2018-02-23T07:00:03.873Z,9.30
2018-02-23T07:01:10.634Z,11.40
2018-02-23T07:02:17.416Z,10.70
2018-02-23T07:03:24.211Z,8.80
2018-02-23T07:04:30.929Z,9.90
2018-02-23T07:05:37.949Z,10.40
2018-02-23T07:06:44.659Z,9.40
2018-02-23T07:07:51.432Z,12.70
2018-02-23T07:08:58.140Z,13.50
2018-02-23T07:10:04.873Z,12.40
2018-02-23T07:11:11.761Z,14.50
2018-02-23T07:12:18.408Z,12.60
2018-02-23T07:13:25.131Z,12.40
2018-02-23T07:14:31.862Z,9.20
2018-02-23T07:15:38.712Z,11.40
2018-02-23T07:16:45.543Z,9.20
2018-02-23T07:17:52.292Z,9.60
2018-02-23T07:18:59.058Z,11.00
2018-02-23T07:20:05.767Z,12.80
2018-02-23T07:21:12.621Z,12.40
2018-02-23T07:22:19.426Z,11.00
2018-02-23T07:23:26.172Z,13.10
2018-02-23T07:24:33.109Z,11.50
2018-02-23T07:25:39.953Z,10.60
2018-02-23T07:26:47.076Z,9.60
2018-02-23T07:27:53.887Z,11.90
2018-02-23T07:29:00.743Z,11.50
2018-02-23T07:30:07.608Z,8.80
2018-02-23T07:31:14.418Z,11.30
2018-02-23T07:32:21.188Z,8.60
2018-02-23T07:33:27.903Z,10.60
2018-02-23T07:34:34.631Z,12.30
2018-02-23T07:35:41.437Z,12.40
2018-02-23T07:36:48.157Z,11.10
2018-02-23T07:37:55.001Z,10.10
2018-02-23T07:39:01.713Z,11.90
2018-02-23T07:40:08.710Z,10.00
2018-02-23T07:41:15.509Z,9.00
2018-02-23T07:42:22.256Z,9.30
2018-02-23T07:43:28.964Z,10.70
2018-02-23T07:44:35.721Z,10.90
2018-02-23T07:45:42.469Z,10.40
2018-02-23T07:46:49.292Z,8.20
2018-02-23T07:47:56.075Z,9.90
2018-02-23T07:49:02.823Z,9.30
2018-02-23T07:50:09.557Z,12.90
2018-02-23T07:51:16.501Z,10.60
2018-02-23T07:52:23.105Z,9.50
2018-02-23T07:53:30.005Z,10.40
2018-02-23T07:54:36.889Z,10.60
2018-02-23T07:55:43.624Z,10.20
2018-02-23T07:56:50.397Z,10.10
2018-02-23T07:57:57.157Z,9.10
2018-02-23T07:59:03.887Z,11.80
2018-02-23T08:00:10.708Z,10.00
2018-02-23T08:01:17.564Z,10.80
2018-02-23T08:02:24.287Z,14.50
2018-02-23T08:03:31.008Z,9.40
2018-02-23T08:04:37.816Z,11.00
2018-02-23T08:05:44.580Z,10.30
2018-02-23T08:06:51.409Z,14.70
2018-02-23T08:07:58.292Z,11.10
2018-02-23T08:09:05.041Z,11.30
2018-02-23T08:10:11.775Z,12.40
2018-02-23T08:11:18.606Z,12.70
2018-02-23T08:12:25.445Z,11.50
2018-02-23T08:13:32.236Z,11.20
2018-02-23T08:14:39.255Z,8.20
2018-02-23T08:15:46.033Z,12.30
2018-02-23T08:16:52.717Z,15.10
2018-02-23T08:17:59.468Z,12.90
2018-02-23T08:19:06.188Z,10.80
2018-02-23T08:20:12.996Z,12.40
2018-02-23T08:21:19.822Z,12.10
2018-02-23T08:22:26.559Z,10.60
2018-02-23T08:23:33.608Z,13.20
2018-02-23T08:24:40.355Z,10.00
2018-02-23T08:25:47.073Z,10.30
2018-02-23T08:26:53.899Z,11.10
2018-02-23T08:28:00.648Z,10.60
2018-02-23T08:29:07.390Z,9.60
2018-02-23T08:30:14.137Z,16.80
2018-02-23T08:31:20.884Z,10.80
2018-02-23T08:32:27.672Z,11.40
2018-02-23T08:33:34.435Z,11.50
2018-02-23T08:34:41.173Z,10.40
2018-02-23T08:35:47.911Z,12.70
2018-02-23T08:36:54.641Z,14.00
2018-02-23T08:38:01.436Z,12.50
2018-02-23T08:39:08.204Z,12.30
2018-02-23T08:40:14.947Z,10.10
2018-02-23T08:41:21.772Z,14.40
2018-02-23T08:42:28.778Z,12.90
2018-02-23T08:43:35.504Z,12.90
2018-02-23T08:44:42.348Z,13.00
2018-02-23T08:45:49.115Z,11.80
2018-02-23T08:46:55.852Z,10.90
2018-02-23T08:48:02.664Z,13.60
2018-02-23T08:49:09.536Z,13.40
2018-02-23T08:50:16.314Z,12.80
2018-02-23T08:51:23.084Z,14.20
2018-02-23T08:52:30.048Z,14.80
2018-02-23T08:53:37.276Z,12.40
2018-02-23T08:54:44.513Z,15.50
2018-02-23T08:55:51.197Z,13.70
2018-02-23T08:56:58.149Z,12.80
2018-02-23T08:58:05.053Z,11.00
2018-02-23T08:59:12.052Z,12.10
2018-02-23T09:00:18.800Z,12.80
2018-02-23T09:01:25.871Z,12.40
2018-02-23T09:02:32.773Z,13.40
2018-02-23T09:03:39.795Z,14.50
2018-02-23T09:04:46.693Z,12.30
2018-02-23T09:05:53.419Z,15.80
2018-02-23T09:07:00.184Z,15.10
2018-02-23T09:08:07.184Z,12.60
2018-02-23T09:09:13.941Z,12.50
2018-02-23T09:10:20.776Z,15.10
2018-02-23T09:11:27.535Z,15.80
2018-02-23T09:12:34.335Z,16.00
2018-02-23T09:13:41.088Z,14.30
2018-02-23T09:14:48.245Z,15.10
2018-02-23T09:15:55.113Z,17.20
2018-02-23T09:17:01.844Z,13.90
2018-02-23T09:18:08.619Z,11.80
2018-02-23T09:19:15.372Z,15.00
2018-02-23T09:20:22.187Z,12.70
2018-02-23T09:21:28.995Z,15.50
2018-02-23T09:22:35.711Z,12.90
2018-02-23T09:23:42.643Z,13.00
2018-02-23T09:24:49.387Z,15.00
2018-02-23T09:25:56.244Z,13.00
2018-02-23T09:27:03.075Z,22.60
2018-02-23T09:28:09.901Z,16.40
2018-02-23T09:29:16.655Z,13.90
2018-02-23T09:30:23.381Z,12.70
2018-02-23T09:31:30.262Z,12.00
2018-02-23T09:32:36.993Z,15.00
2018-02-23T09:33:43.853Z,13.10
2018-02-23T09:34:50.724Z,15.50
2018-02-23T09:35:57.503Z,11.70
2018-02-23T09:37:04.253Z,13.50
2018-02-23T09:38:11.095Z,17.20
2018-02-23T09:39:17.823Z,15.30
2018-02-23T09:40:24.632Z,17.30
2018-02-23T09:41:31.360Z,16.60
2018-02-23T09:42:38.200Z,10.20
2018-02-23T09:43:44.960Z,14.30
2018-02-23T09:44:51.712Z,16.60
2018-02-23T09:45:58.468Z,12.10
2018-02-23T09:47:05.307Z,15.00
2018-02-23T09:48:12.131Z,12.90
2018-02-23T09:49:19.026Z,14.10
2018-02-23T09:50:25.769Z,15.70
2018-02-23T09:51:32.500Z,14.90
2018-02-23T09:52:39.240Z,13.60
2018-02-23T09:53:45.964Z,14.30
2018-02-23T09:54:52.860Z,14.20
2018-02-23T09:55:59.592Z,13.70
2018-02-23T09:57:06.370Z,17.10
2018-02-23T09:58:13.124Z,14.90
2018-02-23T09:59:19.972Z,11.90
2018-02-23T10:00:26.720Z,15.10
2018-02-23T10:01:33.488Z,13.50
2018-02-23T10:02:40.216Z,13.10
2018-02-23T10:03:47.071Z,13.50
2018-02-23T10:04:53.911Z,14.10
2018-02-23T10:06:00.644Z,15.60
2018-02-23T10:07:07.375Z,14.40
2018-02-23T10:08:14.174Z,12.50
2018-02-23T10:09:20.875Z,12.90
2018-02-23T10:10:27.627Z,15.60
2018-02-23T10:11:34.388Z,14.60
2018-02-23T10:12:41.186Z,15.90
2018-02-23T10:13:48.036Z,14.40
2018-02-23T10:14:54.872Z,17.20
2018-02-23T10:16:01.739Z,13.80
2018-02-23T10:17:08.506Z,15.00
2018-02-23T10:18:15.250Z,14.30
2018-02-23T10:19:22.150Z,15.60
2018-02-23T10:20:28.910Z,17.40
2018-02-23T10:21:35.735Z,15.30
2018-02-23T10:22:42.579Z,14.80
2018-02-23T10:23:49.351Z,14.80
2018-02-23T10:24:56.140Z,14.30
2018-02-23T10:26:03.072Z,14.50
2018-02-23T10:27:09.933Z,16.10
2018-02-23T10:28:16.803Z,15.30
2018-02-23T10:29:23.556Z,17.60
2018-02-23T10:30:30.319Z,14.50
2018-02-23T10:31:37.111Z,13.20
2018-02-23T10:32:43.939Z,16.50
2018-02-23T10:33:50.680Z,19.90
2018-02-23T10:34:57.476Z,14.30
2018-02-23T10:36:04.323Z,15.10
2018-02-23T10:37:11.124Z,17.80
2018-02-23T10:38:17.876Z,17.60
2018-02-23T10:39:24.865Z,15.70
2018-02-23T10:40:31.693Z,19.40
2018-02-23T10:41:38.559Z,18.00
2018-02-23T10:42:45.340Z,19.40
2018-02-23T10:43:52.176Z,18.70
2018-02-23T10:44:59.036Z,14.70
2018-02-23T10:46:05.856Z,20.30
2018-02-23T10:47:12.831Z,21.50
2018-02-23T10:48:19.605Z,16.30
2018-02-23T10:49:26.379Z,16.60
2018-02-23T10:50:33.223Z,15.10
2018-02-23T10:51:39.958Z,16.80
2018-02-23T10:52:46.740Z,15.00
2018-02-23T10:53:53.541Z,14.50
2018-02-23T10:55:00.392Z,16.80
2018-02-23T10:56:07.156Z,13.80
2018-02-23T10:57:13.943Z,14.80
2018-02-23T10:58:20.790Z,16.50
2018-02-23T10:59:27.741Z,16.60
2018-02-23T11:00:34.606Z,15.30
2018-02-23T11:01:41.376Z,16.50
2018-02-23T11:02:48.174Z,16.70
2018-02-23T11:03:55.020Z,14.20
2018-02-23T11:05:01.781Z,20.20
2018-02-23T11:06:08.624Z,14.90
2018-02-23T11:07:15.472Z,15.30
2018-02-23T11:08:22.291Z,15.90
2018-02-23T11:09:29.048Z,14.20
2018-02-23T11:10:35.877Z,16.30
2018-02-23T11:11:42.697Z,15.70
2018-02-23T11:12:49.472Z,15.50
2018-02-23T11:13:56.340Z,18.80
2018-02-23T11:15:03.172Z,15.70
2018-02-23T11:16:10.153Z,14.40
2018-02-23T11:17:17.012Z,15.30
2018-02-23T11:18:23.765Z,17.00
2018-02-23T11:19:30.598Z,19.10
2018-02-23T11:20:37.322Z,16.80
2018-02-23T11:21:44.168Z,15.00
2018-02-23T11:22:51.077Z,17.00
2018-02-23T11:23:57.792Z,15.90
2018-02-23T11:25:04.573Z,16.30
2018-02-23T11:26:11.428Z,15.80
2018-02-23T11:27:18.132Z,17.30
2018-02-23T11:28:24.871Z,17.60
2018-02-23T11:29:31.905Z,15.50
2018-02-23T11:30:38.716Z,15.60
2018-02-23T11:31:45.688Z,16.90
2018-02-23T11:32:52.427Z,16.70
2018-02-23T11:33:59.169Z,15.90
2018-02-23T11:35:05.936Z,18.00
2018-02-23T11:36:12.767Z,17.80
2018-02-23T11:37:19.483Z,14.50
2018-02-23T11:38:26.735Z,18.10
2018-02-23T11:39:33.606Z,17.60
2018-02-23T11:40:40.492Z,17.20
2018-02-23T11:41:47.277Z,16.80
2018-02-23T11:42:54.068Z,19.00
2018-02-23T11:44:00.897Z,16.10
2018-02-23T11:45:07.701Z,18.10
2018-02-23T11:46:14.524Z,17.80
2018-02-23T11:47:21.316Z,17.10
2018-02-23T11:48:28.116Z,18.90
2018-02-23T11:49:34.927Z,15.20
2018-02-23T11:50:41.809Z,16.20
2018-02-23T11:51:49.559Z,18.40
2018-02-23T11:52:55.405Z,20.30
2018-02-23T11:54:02.152Z,18.30
2018-02-23T11:55:08.952Z,17.00
2018-02-23T11:56:15.748Z,16.70
2018-02-23T11:57:22.602Z,18.40
2018-02-23T11:58:29.368Z,18.10
2018-02-23T11:59:36.113Z,19.00
2018-02-23T12:00:42.836Z,18.00
2018-02-23T12:01:49.688Z,16.80
2018-02-23T12:02:56.431Z,20.00
2018-02-23T12:04:03.188Z,18.40
2018-02-23T12:05:09.944Z,18.00
2018-02-23T12:06:16.728Z,17.40
2018-02-23T12:07:23.495Z,18.30
2018-02-23T12:08:30.240Z,20.70
2018-02-23T12:09:36.960Z,18.70
2018-02-23T12:10:43.804Z,17.30
2018-02-23T12:11:50.672Z,17.20
2018-02-23T12:12:57.416Z,17.60
2018-02-23T12:14:04.257Z,19.80
2018-02-23T12:15:11.016Z,16.30
2018-02-23T12:16:17.731Z,18.40
2018-02-23T12:17:24.482Z,18.60
2018-02-23T12:18:31.315Z,25.10
2018-02-23T12:19:38.022Z,20.00
2018-02-23T12:20:44.765Z,20.90
2018-02-23T12:21:51.600Z,27.30
2018-02-23T12:22:58.402Z,18.20
2018-02-23T12:24:05.142Z,20.40
2018-02-23T12:25:11.876Z,21.00
2018-02-23T12:26:18.616Z,21.70
2018-02-23T12:27:25.365Z,20.50
2018-02-23T12:28:32.124Z,21.10
2018-02-23T12:29:38.845Z,20.00
2018-02-23T12:30:45.584Z,18.80
2018-02-23T12:31:52.324Z,19.30
2018-02-23T12:32:59.187Z,20.30
2018-02-23T12:34:06.006Z,18.30
2018-02-23T12:35:12.744Z,20.80
2018-02-23T12:36:19.471Z,18.10
2018-02-23T12:37:26.232Z,17.00
2018-02-23T12:38:33.074Z,19.80
2018-02-23T12:39:39.797Z,16.90
2018-02-23T12:40:46.517Z,20.40
2018-02-23T12:41:53.328Z,19.20
2018-02-23T12:43:00.477Z,20.30
2018-02-23T12:44:07.187Z,19.10
2018-02-23T12:45:13.934Z,20.60
2018-02-23T12:46:20.659Z,19.70
2018-02-23T12:47:27.363Z,20.00
2018-02-23T12:48:34.223Z,19.60
2018-02-23T12:49:40.956Z,20.50
2018-02-23T12:50:47.684Z,19.50
2018-02-23T12:51:54.383Z,18.30
2018-02-23T12:53:01.160Z,18.00
2018-02-23T12:54:07.950Z,19.30
2018-02-23T12:55:14.688Z,18.50
2018-02-23T12:56:21.427Z,20.90
2018-02-23T12:57:28.141Z,18.90
2018-02-23T12:58:34.957Z,18.70
2018-02-23T12:59:41.735Z,20.50
2018-02-23T13:00:48.414Z,18.90
2018-02-23T13:01:55.168Z,17.40
2018-02-23T13:03:01.903Z,21.10
2018-02-23T13:04:08.692Z,17.40
2018-02-23T13:05:15.468Z,20.20
2018-02-23T13:06:22.181Z,23.60
2018-02-23T13:07:28.920Z,16.70
2018-02-23T13:08:35.664Z,20.20
2018-02-23T13:09:42.410Z,22.90
2018-02-23T13:10:49.216Z,19.10
2018-02-23T13:11:55.910Z,22.10
2018-02-23T13:13:02.664Z,21.20
2018-02-23T13:14:09.409Z,21.30
2018-02-23T13:15:16.261Z,20.40
2018-02-23T13:16:23.175Z,21.80
2018-02-23T13:17:30.336Z,19.20
2018-02-23T13:18:37.061Z,18.20
2018-02-23T13:19:43.954Z,20.80
2018-02-23T13:20:50.737Z,19.00
2018-02-23T13:21:57.487Z,22.00
2018-02-23T13:23:04.613Z,22.40
2018-02-23T13:24:11.556Z,19.90
2018-02-23T13:25:18.380Z,17.60
2018-02-23T13:26:25.126Z,20.40
2018-02-23T13:27:31.987Z,19.40
2018-02-23T13:28:38.852Z,19.70
2018-02-23T13:29:45.544Z,23.30
2018-02-23T13:30:52.439Z,20.90
2018-02-23T13:31:59.216Z,18.00
2018-02-23T13:33:06.096Z,19.80
2018-02-23T13:34:18.045Z,20.80
2018-02-23T13:35:24.936Z,20.00
2018-02-23T13:36:32.044Z,18.40
2018-02-23T13:37:33.928Z,13.60
2018-02-23T13:38:40.715Z,20.90
2018-02-23T13:39:47.746Z,17.80
2018-02-23T13:40:54.611Z,18.90
2018-02-23T13:42:01.559Z,20.30
2018-02-23T13:43:08.681Z,20.20
2018-02-23T13:44:15.429Z,19.70
2018-02-23T13:45:22.245Z,19.60
2018-02-23T13:46:29.545Z,16.20
2018-02-23T13:47:36.116Z,17.50
2018-02-23T13:48:42.879Z,18.80
2018-02-23T13:49:50.089Z,20.20
2018-02-23T13:50:56.665Z,15.40
2018-02-23T13:52:03.500Z,17.20
2018-02-23T13:53:10.420Z,18.80
2018-02-23T13:54:17.479Z,16.80
2018-02-23T13:55:24.767Z,15.70
2018-02-23T13:56:31.308Z,16.80
2018-02-23T13:57:38.105Z,16.60
2018-02-23T13:58:44.960Z,18.60
2018-02-23T13:59:51.756Z,18.30
2018-02-23T14:00:58.527Z,19.00
2018-02-23T14:02:05.315Z,17.90
2018-02-23T14:03:12.192Z,14.90
2018-02-23T14:04:19.048Z,16.80
2018-02-23T14:05:25.996Z,26.50
2018-02-23T14:06:32.792Z,21.10
2018-02-23T14:07:39.554Z,19.60
2018-02-23T14:08:46.601Z,19.30
2018-02-23T14:09:53.334Z,20.40
2018-02-23T14:11:00.237Z,14.70
2018-02-23T14:12:07.017Z,17.80
2018-02-23T14:13:13.803Z,18.00
2018-02-23T14:14:20.654Z,18.60
2018-02-23T14:15:27.421Z,18.30
2018-02-23T14:16:34.248Z,19.90
2018-02-23T14:17:41.059Z,17.40
2018-02-23T14:18:47.924Z,20.20
2018-02-23T14:19:54.681Z,17.20
2018-02-23T14:21:01.511Z,18.80